Hlavní strana
METAR-TAF:

METAR-TAF

Letiště :

Bodensee

Friedrichshafen, Německo

zeměpisná šířka: 47-40N, zeměpisná délka: 009-31E, výška: 416 m

Aktuální stav počasí

Zpráva byla vytvořena před 15 minutami, v 01:20 UTC
Východní vítr 4 kt
Teplota -1°C
Vlhkost vzduchu 74%
Tlak 1017 hPa
Viditelnost 10 km a více

METAR: EDNY 130120Z AUTO 10004KT 9999 // FEW020/// OVC037/// M01/M05 Q1017

Čas: 02:35 (01:35 UTC)

Předpověď počasí

Zpráva byla vytvořena před 2 hodinami a 35 minutami, v 23:00 UTC
Předpověď platná od 13 v 00 UTC do 13 v 24 UTC
Severovýchodní vítr 8 kt
Viditelnost 10 km a více
Polojasno ve výšce 2500 ft

TAF: EDNY 122300Z 1300/1324 04008KT 9999 SCT025

Stav a předpovědi počasí z více než 4 000 letišť (zprávy METAR a TAF).

Červené a žluté tečky na mapě představují dostupné meteorologické stanice.

Když kurzor umístíte na tečku, zobrazí se název stanice.

Pak kliknutím zobrazíte stav a předpověď počasí.

Chcete-li změnit mapu, kliknutím na zelené tlačítko se znaménkem +mapu přiblížíte, kliknutím na zelené tlačítko se znaménkem – mapu oddálíte a kliknutím na zelené šipky přejdete na sousední mapy.


METAR-TAF: